Main page
METAR-TAF:

METAR-TAF

Airports :

Stockholm-Arlanda, Sweden

Stockholm Arlanda Airport

latitude: 59-39N, longitude: 017-57E, elevation: 38 m

Current weather observation

The report was made 12 minutes ago, at 18:50 UTC
Wind 4 kt from the East
Temperature -5°C
Humidity 86%
Pressure 1006 hPa
Visibility 10 km or more
no clouds below 1500 m and no cumulonimbus

METAR: ESSA 191850Z 08004KT CAVOK M05/M07 Q1006 R01L/29//62 R01R/29//77 R08/29//72 NOSIG

Time: 20:02 (19:02 UTC)

Forecast

The report was made 1 hour and 32 minutes ago, at 17:30 UTC
Forecast valid from 19 at 18 UTC to 20 at 18 UTC
Wind 6 kt from the East/Northeast
Visibility 10 km or more
no clouds below 1500 m and no cumulonimbus

TAF: ESSA 191730Z 1918/2018 07006KT CAVOK

Weather observations and forecasts of more than 4000 airports (METAR and TAF reports).

The available stations are represented by yellow and red dots on the map.

Hover mouse over dot to see the name of the station.

Then click to see weather observations and forecasts.

To change the map : click on the green buttons with a black cross to zoom in, on the green button with a dash to zoom out, or on the green arrows for adjacent maps.


METAR-TAF: